Search for airport 
image banner adimage banner adimage banner ad
image banner ad

2CL5 - Kovr

Located in West Sacramento, United States

ICAO - 2CL5, IATA -

Data provided by Airmate  

General information

Coordinates: N38°35'33" W121°32'49"
Elevation is 20 feet MSL.
Magnetic variation is 16° East
View others Airports in California

Operational data

Special qualification required
Current time UTC:
Current local time:
Weather at : KSAC - Sacramento Executive ( 10 km )
METAR: KSAC 211253Z AUTO 16005KT 10SM CLR 15/11 A2984 RMK AO2 SLP103 T01500111
TAF: KSAC 211120Z 2112/2212 20011KT P6SM SCT250 FM211700 20012G18KT P6SM SKC
View NOTAMs / SUP AIP / TFR affecting this airport [VIEW]
Communications frequencies: [VIEW]

Runways:

Airport contact information

Address: West Sacramento United States

Satellite view of 2CL5